Time;durP1;ratioP1;P1;durP2;ratioP2;P2;SDS_P1;SDS_P2;PMS_P1;PMS_P2;Temp;Humidity;BMP_temperature;BMP_pressure;BME280_temperature;BME280_humidity;BME280_pressure;Samples;Min_cycle;Max_cycle;Signal;HPM_P1;HPM_P2
2022/07/21 00:00:56;;;;;;;7.57;6.00;;;23.40;99.90;;;;;;5011154;28;20072;-72
2022/07/21 00:03:21;;;;;;;9.68;6.13;;;23.40;99.90;;;;;;5011539;28;20037;-72
2022/07/21 00:05:47;;;;;;;10.30;6.88;;;23.30;99.90;;;;;;5011395;28;20026;-72
2022/07/21 00:08:13;;;;;;;7.72;6.35;;;23.20;99.90;;;;;;5011350;28;20112;-72
2022/07/21 00:10:40;;;;;;;7.10;6.40;;;23.20;99.90;;;;;;5010752;28;20025;-72
2022/07/21 00:13:05;;;;;;;6.97;5.85;;;23.10;99.90;;;;;;5011420;28;20116;-73
2022/07/21 00:15:32;;;;;;;7.15;6.45;;;23.20;99.90;;;;;;5011352;28;20106;-72
2022/07/21 00:17:58;;;;;;;9.43;6.32;;;23.20;99.90;;;;;;5011346;28;20034;-73
2022/07/21 00:20:24;;;;;;;6.60;6.00;;;23.10;99.90;;;;;;5012269;28;20022;-72
2022/07/21 00:22:50;;;;;;;6.70;5.95;;;23.20;99.90;;;;;;5015073;28;20377;-72
2022/07/21 00:25:15;;;;;;;6.68;5.90;;;23.00;99.90;;;;;;5015086;28;20404;-73
2022/07/21 00:27:41;;;;;;;9.07;6.25;;;23.10;99.90;;;;;;5015006;28;20030;-73
2022/07/21 00:30:09;;;;;;;6.30;5.70;;;23.20;99.90;;;;;;5013769;28;20087;-73
2022/07/21 00:32:35;;;;;;;6.85;6.10;;;23.00;99.90;;;;;;5014373;28;20026;-72
2022/07/21 00:35:01;;;;;;;6.20;5.63;;;23.00;99.90;;;;;;5014866;28;20487;-72
2022/07/21 00:37:27;;;;;;;8.35;6.43;;;23.00;99.90;;;;;;5014841;28;20038;-72
2022/07/21 00:39:54;;;;;;;7.68;5.90;;;23.10;99.90;;;;;;5014809;28;20432;-72
2022/07/21 00:42:24;;;;;;;6.70;5.70;;;23.00;99.90;;;;;;5014217;28;20068;-72
2022/07/21 00:44:50;;;;;;;6.38;5.63;;;22.80;99.90;;;;;;5014605;28;20396;-74
2022/07/21 00:47:23;;;;;;;7.63;6.35;;;22.70;99.90;;;;;;5014489;28;20060;-73
2022/07/21 00:49:49;;;;;;;6.57;5.88;;;22.80;99.90;;;;;;5014644;28;20033;-74
2022/07/21 00:52:15;;;;;;;8.50;6.10;;;22.80;99.90;;;;;;5013793;28;20041;-73
2022/07/21 00:54:41;;;;;;;8.15;6.32;;;22.70;99.90;;;;;;5014451;28;20065;-72
2022/07/21 00:57:07;;;;;;;9.98;6.72;;;22.70;99.90;;;;;;5014608;28;20062;-73
2022/07/21 00:59:33;;;;;;;6.88;6.05;;;22.70;99.90;;;;;;5014521;28;20049;-73
2022/07/21 01:01:58;;;;;;;7.32;6.13;;;22.70;99.90;;;;;;5013787;28;20477;-73
2022/07/21 01:04:26;;;;;;;7.45;6.30;;;22.80;99.90;;;;;;5014534;28;20477;-73
2022/07/21 01:06:53;;;;;;;8.20;6.13;;;22.60;99.90;;;;;;5014274;28;20033;-73
2022/07/21 01:09:19;;;;;;;7.88;6.72;;;22.70;99.90;;;;;;5014412;28;20018;-73
2022/07/21 01:11:46;;;;;;;7.57;5.55;;;22.70;99.90;;;;;;5013500;28;20119;-73
2022/07/21 01:14:12;;;;;;;7.00;6.20;;;22.60;99.90;;;;;;5014149;28;20033;-73
2022/07/21 01:16:37;;;;;;;6.97;5.80;;;22.60;99.90;;;;;;5011543;28;20029;-73
2022/07/21 01:19:05;;;;;;;6.88;6.25;;;22.70;99.90;;;;;;5014513;28;20376;-73
2022/07/21 01:21:32;;;;;;;7.45;5.97;;;22.90;99.90;;;;;;5012206;28;20049;-73
2022/07/21 01:23:59;;;;;;;7.15;6.45;;;23.20;99.90;;;;;;5013996;28;20022;-72
2022/07/21 01:26:25;;;;;;;9.00;6.13;;;23.20;99.90;;;;;;5013856;28;20029;-73
2022/07/21 01:28:51;;;;;;;7.22;6.40;;;23.10;99.90;;;;;;5014198;28;20409;-73
2022/07/21 01:31:17;;;;;;;7.18;6.47;;;22.90;99.90;;;;;;5013467;28;20511;-73
2022/07/21 01:33:43;;;;;;;7.50;6.68;;;22.80;99.90;;;;;;5013580;28;20029;-73
2022/07/21 01:36:09;;;;;;;7.43;6.30;;;22.60;99.90;;;;;;5009136;28;20045;-72
2022/07/21 01:41:30;;;;;;;7.72;5.93;;;22.60;99.90;;;;;;5001267;28;20033;-73
2022/07/21 01:43:57;;;;;;;8.15;6.53;;;22.60;99.90;;;;;;5013656;28;20459;-72
2022/07/21 01:46:23;;;;;;;9.55;6.75;;;22.70;99.90;;;;;;5013471;28;20105;-73
2022/07/21 01:48:48;;;;;;;7.70;6.55;;;22.90;99.90;;;;;;5013858;28;20132;-72
2022/07/21 01:51:14;;;;;;;8.77;7.25;;;22.90;99.90;;;;;;5012931;28;20564;-72
2022/07/21 01:53:40;;;;;;;7.95;7.05;;;22.70;99.90;;;;;;5013391;28;20029;-73
2022/07/21 01:56:07;;;;;;;9.73;8.50;;;22.20;99.90;;;;;;5013182;28;20057;-74
2022/07/21 01:58:33;;;;;;;9.18;7.07;;;21.70;99.90;;;;;;5013136;28;20503;-74
2022/07/21 02:00:58;;;;;;;9.35;7.90;;;21.70;99.90;;;;;;5012478;28;20033;-74
2022/07/21 02:03:24;;;;;;;9.60;8.15;;;22.10;99.90;;;;;;5013290;28;20025;-74
2022/07/21 02:05:50;;;;;;;8.90;6.88;;;22.10;99.90;;;;;;5013164;28;20448;-71
2022/07/21 02:08:15;;;;;;;10.63;7.82;;;22.10;99.90;;;;;;5013132;28;20401;-71
2022/07/21 02:10:41;;;;;;;9.75;7.85;;;22.10;99.90;;;;;;5012546;28;20034;-73
2022/07/21 02:13:07;;;;;;;8.65;7.18;;;21.80;99.90;;;;;;5013040;28;20029;-73
2022/07/21 02:15:33;;;;;;;8.35;7.45;;;22.10;99.90;;;;;;5012871;28;20041;-73
2022/07/21 02:17:59;;;;;;;8.65;7.32;;;21.80;99.90;;;;;;5012919;28;20062;-73
2022/07/21 02:20:25;;;;;;;8.60;7.68;;;21.40;99.90;;;;;;5012395;28;20396;-74
2022/07/21 02:22:51;;;;;;;9.05;7.68;;;21.60;99.90;;;;;;5012893;28;20436;-73
2022/07/21 02:25:17;;;;;;;10.10;8.48;;;21.60;99.90;;;;;;5012719;28;20472;-74
2022/07/21 02:27:44;;;;;;;9.07;7.57;;;21.60;99.90;;;;;;5012602;28;20045;-73
2022/07/21 02:30:12;;;;;;;9.63;8.63;;;21.40;99.90;;;;;;5012693;28;20037;-75
2022/07/21 02:32:37;;;;;;;9.35;8.20;;;21.30;99.90;;;;;;5028562;28;20032;-73
2022/07/21 02:35:04;;;;;;;9.82;8.80;;;21.50;99.90;;;;;;5032377;28;20424;-73
2022/07/21 02:37:30;;;;;;;10.38;9.27;;;21.50;99.90;;;;;;5030957;28;20029;-73
2022/07/21 02:39:56;;;;;;;10.40;8.52;;;21.50;99.90;;;;;;5021186;28;20108;-72
2022/07/21 02:42:21;;;;;;;10.18;8.65;;;21.60;99.90;;;;;;5011592;28;20504;-73
2022/07/21 02:44:47;;;;;;;11.45;8.50;;;21.20;99.90;;;;;;5012217;28;20054;-72
2022/07/21 02:47:12;;;;;;;10.98;9.15;;;21.10;99.90;;;;;;5012275;28;20030;-72
2022/07/21 02:49:38;;;;;;;10.68;9.23;;;20.70;99.90;;;;;;5012464;28;20571;-72
2022/07/21 02:52:05;;;;;;;12.68;9.68;;;20.70;99.90;;;;;;5011811;28;20029;-72
2022/07/21 02:54:31;;;;;;;11.38;9.05;;;20.70;99.90;;;;;;5012369;28;20116;-72
2022/07/21 02:56:56;;;;;;;10.10;9.10;;;20.60;99.90;;;;;;5012237;28;20104;-73
2022/07/21 02:59:22;;;;;;;10.45;9.07;;;20.80;99.90;;;;;;5012494;28;20018;-73
2022/07/21 03:01:48;;;;;;;9.80;8.77;;;21.00;99.90;;;;;;5011533;28;20523;-73
2022/07/21 03:04:13;;;;;;;9.85;8.70;;;20.80;99.90;;;;;;5012396;28;20401;-72
2022/07/21 03:06:39;;;;;;;11.00;9.68;;;20.80;99.90;;;;;;5012588;28;20324;-73
2022/07/21 03:09:05;;;;;;;11.85;10.45;;;20.60;99.90;;;;;;5012221;28;20028;-73
2022/07/21 03:11:30;;;;;;;11.95;10.07;;;19.50;99.90;;;;;;5011385;28;20026;-72
2022/07/21 03:13:56;;;;;;;9.82;8.93;;;19.80;99.90;;;;;;5012021;28;20387;-72
2022/07/21 03:16:21;;;;;;;10.45;9.40;;;20.10;99.90;;;;;;5011927;28;20029;-72
2022/07/21 03:18:47;;;;;;;11.07;9.98;;;20.50;99.90;;;;;;5012001;28;20109;-72
2022/07/21 03:21:13;;;;;;;12.52;11.10;;;19.80;99.90;;;;;;5011326;28;20405;-71
2022/07/21 03:23:38;;;;;;;11.98;10.77;;;19.20;99.90;;;;;;5011990;28;20156;-71
2022/07/21 03:26:04;;;;;;;10.98;9.88;;;19.10;99.90;;;;;;5011844;28;20033;-71
2022/07/21 03:28:30;;;;;;;11.75;9.93;;;19.30;99.90;;;;;;5011810;28;20034;-71
2022/07/21 03:30:56;;;;;;;13.02;10.38;;;19.50;99.90;;;;;;5011096;28;20037;-72
2022/07/21 03:33:21;;;;;;;13.63;10.70;;;19.60;99.90;;;;;;5010030;28;20168;-71
2022/07/21 03:35:47;;;;;;;12.63;10.23;;;19.70;99.90;;;;;;5003589;28;20142;-71
2022/07/21 03:38:12;;;;;;;12.10;10.80;;;19.70;99.90;;;;;;5011731;28;20049;-71
2022/07/21 03:40:38;;;;;;;13.27;9.73;;;19.90;99.90;;;;;;5010959;28;20108;-72
2022/07/21 03:43:06;;;;;;;13.50;11.32;;;20.20;99.90;;;;;;5011773;28;20026;-72
2022/07/21 03:45:33;;;;;;;14.30;11.07;;;20.10;99.90;;;;;;5012048;28;20026;-72
2022/07/21 03:48:01;;;;;;;11.88;10.68;;;20.10;99.90;;;;;;5011751;28;20116;-71
2022/07/21 03:50:27;;;;;;;13.32;10.63;;;20.20;99.90;;;;;;5010963;28;20029;-71
2022/07/21 03:52:53;;;;;;;12.80;10.68;;;20.00;99.90;;;;;;5011540;28;20098;-74
2022/07/21 03:55:19;;;;;;;12.73;11.43;;;19.70;99.90;;;;;;5012771;28;20514;-70
2022/07/21 03:57:47;;;;;;;12.38;10.63;;;19.70;99.90;;;;;;5015612;28;20560;-72
2022/07/21 04:00:18;;;;;;;12.52;11.23;;;20.00;99.90;;;;;;5015198;28;20097;-72
2022/07/21 04:02:45;;;;;;;12.40;11.20;;;20.20;99.90;;;;;;5011140;28;20053;-72
2022/07/21 04:05:12;;;;;;;12.32;11.02;;;20.20;99.90;;;;;;5013507;28;20480;-71
2022/07/21 04:07:43;;;;;;;13.40;11.13;;;20.10;99.90;;;;;;5015233;28;20042;-72
2022/07/21 04:10:10;;;;;;;12.10;10.35;;;20.20;99.90;;;;;;5015072;28;20470;-72
2022/07/21 04:12:36;;;;;;;14.93;13.07;;;20.20;99.90;;;;;;5014930;28;20431;-72
2022/07/21 04:15:04;;;;;;;14.00;12.55;;;20.30;99.90;;;;;;5015247;28;20026;-72
2022/07/21 04:17:29;;;;;;;12.05;10.85;;;20.10;99.90;;;;;;5015225;28;20064;-73
2022/07/21 04:19:55;;;;;;;14.07;11.65;;;20.20;99.90;;;;;;5013866;28;20064;-71
2022/07/21 04:22:20;;;;;;;13.25;10.88;;;20.20;99.90;;;;;;5014632;28;20049;-72
2022/07/21 04:24:46;;;;;;;12.25;11.15;;;20.30;99.90;;;;;;5014829;28;20029;-72
2022/07/21 04:27:11;;;;;;;14.18;12.40;;;20.30;99.90;;;;;;5015066;28;20021;-72
2022/07/21 04:29:37;;;;;;;13.88;12.48;;;20.30;99.90;;;;;;5014955;28;20026;-72
2022/07/21 04:32:03;;;;;;;14.07;11.10;;;20.50;99.90;;;;;;5014406;28;20026;-72
2022/07/21 04:34:29;;;;;;;13.57;11.50;;;20.50;99.90;;;;;;5014953;28;20036;-73
2022/07/21 04:36:55;;;;;;;14.88;11.68;;;20.30;99.90;;;;;;5014685;28;20484;-72
2022/07/21 04:39:20;;;;;;;15.85;13.95;;;20.40;99.90;;;;;;5014659;28;20034;-72
2022/07/21 04:41:46;;;;;;;16.48;12.52;;;20.50;99.90;;;;;;5014203;28;20041;-72
2022/07/21 04:44:11;;;;;;;16.30;11.73;;;20.30;99.90;;;;;;5014773;28;20439;-72
2022/07/21 04:46:37;;;;;;;12.45;11.15;;;20.30;99.90;;;;;;5014618;28;20022;-72
2022/07/21 04:49:03;;;;;;;15.63;11.20;;;20.10;99.90;;;;;;5013358;28;20385;-72
2022/07/21 04:51:28;;;;;;;14.30;12.43;;;20.40;99.90;;;;;;5012807;28;20029;-72
2022/07/21 04:53:54;;;;;;;13.30;11.95;;;20.30;99.90;;;;;;5012949;28;20465;-71
2022/07/21 04:56:20;;;;;;;15.40;13.30;;;20.00;99.90;;;;;;5013445;28;20084;-72
2022/07/21 04:58:45;;;;;;;16.38;12.38;;;20.10;99.90;;;;;;5013194;28;20100;-72
2022/07/21 05:01:11;;;;;;;15.15;13.40;;;20.00;99.90;;;;;;5012641;28;20396;-72
2022/07/21 05:03:36;;;;;;;15.32;13.02;;;19.90;99.90;;;;;;5013326;28;20032;-72
2022/07/21 05:06:02;;;;;;;15.93;14.23;;;20.00;99.90;;;;;;5013297;28;20029;-71
2022/07/21 05:08:27;;;;;;;15.93;14.23;;;19.90;99.90;;;;;;5012916;28;20034;-72
2022/07/21 05:10:53;;;;;;;16.33;14.65;;;19.80;99.90;;;;;;5012578;28;20370;-72
2022/07/21 05:13:19;;;;;;;16.58;14.82;;;19.90;99.90;;;;;;5013229;28;20416;-71
2022/07/21 05:15:44;;;;;;;16.42;14.80;;;20.00;99.90;;;;;;5011822;28;20271;-72
2022/07/21 05:18:10;;;;;;;16.88;15.07;;;19.90;99.90;;;;;;5012523;28;20419;-72
2022/07/21 05:20:36;;;;;;;20.23;15.95;;;20.00;99.90;;;;;;5012302;28;20104;-71
2022/07/21 05:23:04;;;;;;;18.42;16.50;;;20.00;99.90;;;;;;5012654;28;20480;-72
2022/07/21 05:25:31;;;;;;;17.67;15.85;;;19.80;99.90;;;;;;5013064;28;20372;-72
2022/07/21 05:27:57;;;;;;;18.75;15.35;;;19.70;99.90;;;;;;5012862;28;20030;-72
2022/07/21 05:30:23;;;;;;;19.90;16.80;;;19.60;99.90;;;;;;5012287;28;20034;-72
2022/07/21 05:32:48;;;;;;;19.65;16.70;;;19.70;99.90;;;;;;5012790;28;20057;-71
2022/07/21 05:35:15;;;;;;;19.63;17.30;;;19.70;99.90;;;;;;5013028;28;20439;-72
2022/07/21 05:37:41;;;;;;;19.80;17.77;;;19.80;99.90;;;;;;5011177;28;20064;-72
2022/07/21 05:40:08;;;;;;;19.70;17.65;;;19.80;99.90;;;;;;5012574;28;20030;-72
2022/07/21 05:42:34;;;;;;;21.48;17.90;;;19.80;99.90;;;;;;5016829;28;20021;-72
2022/07/21 05:45:00;;;;;;;21.38;17.83;;;19.80;99.90;;;;;;5016776;28;20072;-73
2022/07/21 05:47:25;;;;;;;21.90;19.05;;;19.80;99.90;;;;;;4966581;28;1332679;-71
2022/07/21 05:49:51;;;;;;;21.17;18.77;;;19.70;99.90;;;;;;5013997;28;20041;-72
2022/07/21 05:52:16;;;;;;;22.05;18.27;;;19.80;99.90;;;;;;5030399;28;20490;-71
2022/07/21 05:54:42;;;;;;;21.52;19.00;;;19.90;99.90;;;;;;5033218;28;20025;-72
2022/07/21 05:57:07;;;;;;;21.17;18.98;;;19.80;99.90;;;;;;5032950;28;20408;-72
2022/07/21 05:59:33;;;;;;;22.38;20.02;;;20.10;99.90;;;;;;5033216;28;20014;-72
2022/07/21 06:01:59;;;;;;;23.38;19.15;;;20.10;99.90;;;;;;5031210;28;20025;-72
2022/07/21 06:04:24;;;;;;;22.40;19.77;;;19.90;99.90;;;;;;5033113;28;20506;-72
2022/07/21 06:06:52;;;;;;;23.55;19.15;;;20.10;99.90;;;;;;5028413;28;20038;-72
2022/07/21 06:09:18;;;;;;;23.55;19.98;;;20.10;99.90;;;;;;5005009;28;20037;-71
2022/07/21 06:11:44;;;;;;;23.92;20.50;;;20.40;99.90;;;;;;5012382;28;20021;-72
2022/07/21 06:14:10;;;;;;;22.60;20.23;;;20.30;99.90;;;;;;5013110;28;20072;-72
2022/07/21 06:16:35;;;;;;;21.90;19.50;;;20.30;99.90;;;;;;5008423;28;20460;-72
2022/07/21 06:19:04;;;;;;;22.10;19.20;;;20.40;99.90;;;;;;5014333;28;20025;-72
2022/07/21 06:21:30;;;;;;;22.08;19.52;;;20.40;99.90;;;;;;5032186;28;20387;-72
2022/07/21 06:23:55;;;;;;;22.00;19.67;;;20.40;99.90;;;;;;5032652;28;20022;-72
2022/07/21 06:26:21;;;;;;;23.20;20.30;;;20.30;99.90;;;;;;5032576;28;20041;-72
2022/07/21 06:28:46;;;;;;;24.60;20.20;;;20.20;99.90;;;;;;5032602;28;20028;-72
2022/07/21 06:31:12;;;;;;;22.98;20.48;;;20.40;99.90;;;;;;5031795;28;20136;-72
2022/07/21 06:33:38;;;;;;;22.45;20.15;;;20.20;99.90;;;;;;5032528;28;20021;-73
2022/07/21 06:36:03;;;;;;;22.95;20.40;;;20.20;99.90;;;;;;5032305;28;20030;-73
2022/07/21 06:38:29;;;;;;;23.65;20.10;;;20.30;99.90;;;;;;5032316;28;20408;-73
2022/07/21 06:40:54;;;;;;;23.05;20.55;;;20.30;99.90;;;;;;5012605;28;20030;-74
2022/07/21 06:43:20;;;;;;;23.05;20.33;;;20.40;99.90;;;;;;5012781;28;20536;-73
2022/07/21 06:45:46;;;;;;;22.90;20.55;;;20.50;99.90;;;;;;5012600;28;20022;-73
2022/07/21 06:48:12;;;;;;;22.38;20.08;;;21.00;99.90;;;;;;5012458;28;20041;-73
2022/07/21 06:50:37;;;;;;;22.23;19.70;;;21.10;99.90;;;;;;5011757;28;20113;-73
2022/07/21 06:53:04;;;;;;;22.95;20.50;;;20.90;99.90;;;;;;5012550;28;20125;-73
2022/07/21 06:55:30;;;;;;;22.50;19.65;;;21.00;99.90;;;;;;5012168;28;20088;-73
2022/07/21 06:57:56;;;;;;;25.65;21.42;;;21.10;99.90;;;;;;5012319;28;20408;-73
2022/07/21 07:00:22;;;;;;;25.05;20.25;;;21.10;99.90;;;;;;5011750;28;20018;-72
2022/07/21 07:02:47;;;;;;;24.13;19.92;;;21.20;99.90;;;;;;5010996;28;20515;-73
2022/07/21 07:05:13;;;;;;;24.92;19.77;;;21.00;99.90;;;;;;5012131;28;20028;-73
2022/07/21 07:07:39;;;;;;;22.58;19.38;;;20.90;99.90;;;;;;5012375;28;20072;-73
2022/07/21 07:10:05;;;;;;;23.42;19.67;;;21.10;99.90;;;;;;5010846;28;20050;-73
2022/07/21 07:12:31;;;;;;;26.70;20.65;;;21.10;99.90;;;;;;5011623;28;20072;-73
2022/07/21 07:14:57;;;;;;;20.02;17.23;;;21.30;99.90;;;;;;5007527;28;20030;-74
2022/07/21 07:17:22;;;;;;;21.40;19.10;;;21.40;99.90;;;;;;5003648;28;20022;-74
2022/07/21 07:19:48;;;;;;;22.88;20.20;;;21.40;99.90;;;;;;5012002;28;20034;-74
2022/07/21 07:22:14;;;;;;;21.92;19.33;;;21.30;99.90;;;;;;5010486;28;20018;-73
2022/07/21 07:24:40;;;;;;;23.92;21.00;;;21.10;99.90;;;;;;5011748;28;20021;-73
2022/07/21 07:27:06;;;;;;;22.85;20.38;;;20.90;99.90;;;;;;5012018;28;20025;-73
2022/07/21 07:29:32;;;;;;;24.95;20.50;;;20.80;99.90;;;;;;5011729;28;20030;-74
2022/07/21 07:31:58;;;;;;;23.27;20.80;;;20.80;99.90;;;;;;5011410;28;20410;-75
2022/07/21 07:34:24;;;;;;;22.83;20.00;;;21.00;99.90;;;;;;5011778;28;20076;-75
2022/07/21 07:36:50;;;;;;;22.05;19.05;;;21.20;99.90;;;;;;5011888;28;20025;-75
2022/07/21 07:39:15;;;;;;;26.05;20.27;;;21.10;99.90;;;;;;5011833;28;20018;-75
2022/07/21 07:41:42;;;;;;;24.20;20.23;;;21.10;99.90;;;;;;5011244;28;20481;-74
2022/07/21 07:44:08;;;;;;;23.00;20.02;;;21.30;99.90;;;;;;5011812;28;20392;-74
2022/07/21 07:46:34;;;;;;;21.00;18.75;;;21.30;99.90;;;;;;5011596;28;20389;-73
2022/07/21 07:48:59;;;;;;;20.95;18.83;;;21.70;99.90;;;;;;5011617;28;20129;-74
2022/07/21 07:51:25;;;;;;;20.80;18.67;;;22.20;99.90;;;;;;5011010;28;20045;-74
2022/07/21 07:53:51;;;;;;;21.52;19.20;;;22.40;99.90;;;;;;5011618;28;20480;-74
2022/07/21 07:56:16;;;;;;;21.40;19.25;;;22.30;99.90;;;;;;5011631;28;20558;-74
2022/07/21 07:58:42;;;;;;;22.27;19.55;;;22.50;99.90;;;;;;5011516;28;20392;-74
2022/07/21 08:01:09;;;;;;;20.92;18.75;;;22.40;99.90;;;;;;5011018;28;20033;-74
2022/07/21 08:03:35;;;;;;;20.13;17.15;;;22.60;99.90;;;;;;5011475;28;20022;-74
2022/07/21 08:06:06;;;;;;;20.13;17.75;;;22.50;99.90;;;;;;5010217;28;20022;-74
2022/07/21 08:08:31;;;;;;;22.73;20.02;;;22.50;99.90;;;;;;5011517;28;20034;-74
2022/07/21 08:10:57;;;;;;;22.55;19.10;;;22.30;99.90;;;;;;5011038;28;20076;-74
2022/07/21 08:13:23;;;;;;;23.08;19.35;;;22.10;99.90;;;;;;5011521;28;20472;-74
2022/07/21 08:15:51;;;;;;;20.48;18.38;;;22.10;99.90;;;;;;5011388;28;20048;-74
2022/07/21 08:18:17;;;;;;;20.80;18.50;;;22.00;99.90;;;;;;5011338;28;20022;-74
2022/07/21 08:20:44;;;;;;;21.05;17.60;;;22.30;99.90;;;;;;5010825;28;20022;-74
2022/07/21 08:23:11;;;;;;;21.23;17.67;;;21.90;99.90;;;;;;5011352;28;20365;-73
2022/07/21 08:25:37;;;;;;;18.95;16.58;;;21.90;99.90;;;;;;5011322;28;20033;-73
2022/07/21 08:28:03;;;;;;;20.73;16.88;;;22.00;99.90;;;;;;5011359;28;20029;-72
2022/07/21 08:30:29;;;;;;;17.90;16.00;;;22.30;99.90;;;;;;5010548;28;20105;-72
2022/07/21 08:32:55;;;;;;;17.15;15.38;;;22.30;99.90;;;;;;5011239;28;20110;-72
2022/07/21 08:35:21;;;;;;;18.10;15.52;;;22.40;99.90;;;;;;5011130;28;20072;-72
2022/07/21 08:38:01;;;;;;;17.13;15.05;;;22.80;99.90;;;;;;5011158;28;20045;-72
2022/07/21 08:40:29;;;;;;;14.82;13.30;;;23.10;99.90;;;;;;5010478;28;20034;-72
2022/07/21 08:42:55;;;;;;;16.08;13.25;;;23.40;99.90;;;;;;5014841;28;20026;-73
2022/07/21 08:45:23;;;;;;;14.98;12.50;;;23.40;99.90;;;;;;5014686;28;20029;-72
2022/07/21 08:47:53;;;;;;;15.02;13.18;;;23.40;99.90;;;;;;5014697;28;20480;-72
2022/07/21 08:50:21;;;;;;;14.35;12.95;;;23.00;99.90;;;;;;5013974;28;20037;-72
2022/07/21 08:52:47;;;;;;;14.68;12.80;;;23.00;99.90;;;;;;5014655;28;20492;-72
2022/07/21 08:55:13;;;;;;;12.93;10.25;;;22.90;99.90;;;;;;5014534;28;20048;-72
2022/07/21 08:57:39;;;;;;;11.68;10.48;;;22.90;99.90;;;;;;5014413;28;20392;-72
2022/07/21 09:00:07;;;;;;;13.38;10.02;;;22.90;99.90;;;;;;5011913;28;20109;-72
2022/07/21 09:02:35;;;;;;;12.57;11.13;;;23.10;99.90;;;;;;5011794;28;20024;-72
2022/07/21 09:05:01;;;;;;;12.07;9.88;;;23.10;99.90;;;;;;5013605;28;20018;-73
2022/07/21 09:07:28;;;;;;;11.52;10.38;;;23.60;99.90;;;;;;5014856;28;20057;-72
2022/07/21 09:09:56;;;;;;;12.20;10.23;;;23.80;99.90;;;;;;5014356;28;20053;-72
2022/07/21 09:12:22;;;;;;;11.52;10.32;;;23.90;99.90;;;;;;5014135;28;20029;-72
2022/07/21 09:14:48;;;;;;;13.13;10.32;;;23.80;99.90;;;;;;5014306;28;20084;-72
2022/07/21 09:17:17;;;;;;;11.95;10.48;;;23.70;99.90;;;;;;5011747;28;20435;-72
2022/07/21 09:19:45;;;;;;;12.65;10.57;;;23.80;99.90;;;;;;5014112;28;20381;-73
2022/07/21 09:22:18;;;;;;;12.98;9.98;;;23.50;99.90;;;;;;5013656;28;20013;-73
2022/07/21 09:24:52;;;;;;;12.10;9.60;;;23.40;99.90;;;;;;5013872;28;20107;-72
2022/07/21 09:27:22;;;;;;;10.35;9.27;;;23.70;99.90;;;;;;5012833;28;20026;-72
2022/07/21 09:29:58;;;;;;;11.00;9.52;;;24.10;99.90;;;;;;5010831;28;20030;-73
2022/07/21 09:32:36;;;;;;;11.85;9.00;;;24.00;99.90;;;;;;5013386;28;20388;-72
2022/07/21 09:35:09;;;;;;;10.65;9.55;;;24.50;99.90;;;;;;5013841;28;20396;-72
2022/07/21 09:37:37;;;;;;;10.15;9.05;;;23.90;99.90;;;;;;5013740;28;20056;-72
2022/07/21 09:40:07;;;;;;;12.00;10.05;;;23.90;99.90;;;;;;5013869;28;20026;-73
2022/07/21 09:42:38;;;;;;;11.07;9.82;;;24.80;99.90;;;;;;5013027;28;20134;-73
2022/07/21 09:45:09;;;;;;;11.18;9.23;;;24.70;99.90;;;;;;5013145;28;20101;-72
2022/07/21 09:47:38;;;;;;;11.25;9.43;;;24.90;99.90;;;;;;5018492;28;20488;-73
2022/07/21 09:50:05;;;;;;;11.43;9.70;;;25.80;99.90;;;;;;5013587;28;20062;-73
2022/07/21 09:52:34;;;;;;;10.43;9.18;;;25.50;99.90;;;;;;5011353;28;20507;-72
2022/07/21 09:55:06;;;;;;;11.35;10.25;;;24.80;99.90;;;;;;5013370;28;20030;-73
2022/07/21 09:57:32;;;;;;;13.43;10.73;;;24.30;99.90;;;;;;5013356;28;20480;-73
2022/07/21 09:59:58;;;;;;;10.40;9.40;;;24.30;99.90;;;;;;5012879;28;20446;-73
2022/07/21 10:02:28;;;;;;;9.25;8.32;;;24.90;99.90;;;;;;5012959;28;20030;-72
2022/07/21 10:05:08;;;;;;;10.10;9.10;;;24.70;99.90;;;;;;5013154;28;20108;-72
2022/07/21 10:07:40;;;;;;;10.43;8.63;;;25.10;99.90;;;;;;5013391;28;20115;-73
2022/07/21 10:10:07;;;;;;;10.35;8.73;;;25.20;99.90;;;;;;5018036;28;20025;-72
2022/07/21 10:12:33;;;;;;;10.32;9.20;;;24.70;99.90;;;;;;5030796;28;20033;-73
2022/07/21 10:14:59;;;;;;;9.73;8.80;;;24.60;99.90;;;;;;5032886;28;20021;-72
2022/07/21 10:17:25;;;;;;;10.05;8.95;;;24.90;99.90;;;;;;5032876;28;20040;-73
2022/07/21 10:20:03;;;;;;;9.52;8.45;;;25.90;99.90;;;;;;5032808;28;20101;-72
2022/07/21 10:22:53;;;;;;;10.68;9.00;;;25.80;99.90;;;;;;5032208;28;20193;-72
2022/07/21 10:25:20;;;;;;;8.80;7.90;;;24.80;99.90;;;;;;5032923;28;20029;-73
2022/07/21 10:28:11;;;;;;;7.68;6.80;;;25.80;99.90;;;;;;5032653;28;20388;-72
2022/07/21 10:30:45;;;;;;;6.75;6.05;;;26.20;99.90;;;;;;5031967;28;20206;-72
2022/07/21 10:33:12;;;;;;;6.93;5.70;;;26.20;99.90;;;;;;5000223;28;20022;-73
2022/07/21 10:35:43;;;;;;;7.30;6.60;;;26.30;99.90;;;;;;5012538;28;20036;-73
2022/07/21 10:38:26;;;;;;;9.32;6.28;;;26.30;99.90;;;;;;5012764;28;20491;-72
2022/07/21 10:40:52;;;;;;;7.88;5.75;;;26.50;99.90;;;;;;5010701;28;20022;-72
2022/07/21 10:43:24;;;;;;;5.65;5.10;;;26.50;99.90;;;;;;5007827;28;20018;-72
2022/07/21 10:45:50;;;;;;;5.50;5.00;;;26.50;99.90;;;;;;4998747;28;20392;-72
2022/07/21 10:48:37;;;;;;;5.65;5.15;;;26.50;99.90;;;;;;5009441;28;20030;-71
2022/07/21 10:51:06;;;;;;;5.97;5.38;;;27.40;99.90;;;;;;5011557;28;20468;-72
2022/07/21 10:53:32;;;;;;;6.10;5.28;;;27.20;99.90;;;;;;5007230;28;20034;-72
2022/07/21 10:55:57;;;;;;;5.57;5.07;;;27.40;99.90;;;;;;5009575;28;20076;-72
2022/07/21 10:58:24;;;;;;;6.00;5.00;;;26.70;99.90;;;;;;5010013;28;20022;-72
2022/07/21 11:00:53;;;;;;;7.13;5.60;;;26.90;99.90;;;;;;5007384;28;20025;-72
2022/07/21 11:03:30;;;;;;;6.07;5.47;;;26.10;99.90;;;;;;5006830;28;20018;-72
2022/07/21 11:06:18;;;;;;;5.88;5.38;;;25.60;99.90;;;;;;5012120;28;20036;-72
2022/07/21 11:09:02;;;;;;;7.93;6.20;;;25.60;99.90;;;;;;5011970;28;20037;-72
2022/07/21 11:11:29;;;;;;;7.40;5.72;;;25.30;99.90;;;;;;5011156;28;20026;-73
2022/07/21 11:14:14;;;;;;;8.20;6.28;;;25.40;99.90;;;;;;5009685;28;20029;-72
2022/07/21 11:17:03;;;;;;;6.97;6.28;;;25.40;99.90;;;;;;5003700;28;20028;-72
2022/07/21 11:19:39;;;;;;;6.70;5.93;;;25.30;99.90;;;;;;5002450;28;20393;-72
2022/07/21 11:22:23;;;;;;;7.22;6.50;;;25.40;99.90;;;;;;5017363;28;20040;-72
2022/07/21 11:25:03;;;;;;;7.45;6.75;;;25.70;99.90;;;;;;5008837;28;20029;-72
2022/07/21 11:27:31;;;;;;;7.10;6.38;;;26.20;99.90;;;;;;5005005;28;20021;-72
2022/07/21 11:29:59;;;;;;;6.78;6.07;;;26.50;99.90;;;;;;5020418;28;20087;-72
2022/07/21 11:32:26;;;;;;;8.05;5.97;;;26.80;99.90;;;;;;5019148;28;20105;-72
2022/07/21 11:34:59;;;;;;;9.32;6.00;;;26.60;99.90;;;;;;5007719;28;20029;-71
2022/07/21 11:37:35;;;;;;;6.20;5.60;;;26.90;99.90;;;;;;5003517;28;20051;-73
2022/07/21 11:40:12;;;;;;;8.27;5.82;;;27.40;99.90;;;;;;5009418;28;20117;-74
2022/07/21 11:42:38;;;;;;;5.88;5.32;;;27.70;99.90;;;;;;5012766;28;20073;-73
2022/07/21 11:45:05;;;;;;;6.88;5.93;;;27.80;99.90;;;;;;5007186;28;20437;-74
2022/07/21 11:47:31;;;;;;;6.30;5.35;;;27.50;99.90;;;;;;5008560;28;20445;-74
2022/07/21 11:50:00;;;;;;;8.10;5.65;;;27.90;99.90;;;;;;5011318;28;20113;-73
2022/07/21 11:52:29;;;;;;;8.00;5.38;;;27.60;99.90;;;;;;5002700;28;20433;-74
2022/07/21 11:54:57;;;;;;;5.93;5.20;;;27.40;99.90;;;;;;5013781;28;20380;-74
2022/07/21 11:57:24;;;;;;;5.82;5.32;;;27.60;99.90;;;;;;5012828;28;20067;-73
2022/07/21 11:59:52;;;;;;;6.35;5.50;;;27.50;99.90;;;;;;5009237;28;20480;-73
2022/07/21 12:02:33;;;;;;;5.82;5.28;;;27.10;99.90;;;;;;5012130;28;20026;-73
2022/07/21 12:05:04;;;;;;;5.68;5.18;;;27.60;99.90;;;;;;5008474;28;20022;-74
2022/07/21 12:07:42;;;;;;;6.47;4.97;;;27.30;99.90;;;;;;5009475;28;20068;-74
2022/07/21 12:10:34;;;;;;;5.82;4.47;;;27.90;99.90;;;;;;5010716;28;20512;-74
2022/07/21 12:13:06;;;;;;;5.28;4.18;;;28.00;99.90;;;;;;5007684;28;20712;-74
2022/07/21 12:15:34;;;;;;;5.18;4.68;;;27.40;99.90;;;;;;5011122;28;20022;-74
2022/07/21 12:18:02;;;;;;;4.57;4.10;;;28.20;99.90;;;;;;5015311;28;20033;-74
2022/07/21 12:20:41;;;;;;;6.35;4.60;;;28.10;99.90;;;;;;5021070;28;20100;-74
2022/07/21 12:23:23;;;;;;;5.30;4.32;;;28.00;99.90;;;;;;5024168;28;20030;-74
2022/07/21 12:25:50;;;;;;;4.60;4.20;;;27.40;99.90;;;;;;5020265;28;20018;-74
2022/07/21 12:28:16;;;;;;;4.82;4.30;;;27.20;99.90;;;;;;5012640;28;20073;-74
2022/07/21 12:30:49;;;;;;;4.45;3.92;;;26.80;99.90;;;;;;5019471;28;20225;-75
2022/07/21 12:33:28;;;;;;;5.63;3.95;;;27.00;99.90;;;;;;5022688;28;20113;-74
2022/07/21 12:36:00;;;;;;;5.18;4.10;;;26.90;99.90;;;;;;5021374;28;20128;-74
2022/07/21 12:38:45;;;;;;;4.70;4.30;;;26.90;99.90;;;;;;5029563;28;20018;-74
2022/07/21 12:41:19;;;;;;;4.95;4.38;;;27.40;99.90;;;;;;5014877;28;20381;-75